sensor_id;sensor_type;location;lat;lon;timestamp;P1;durP1;ratioP1;P2;durP2;ratioP2
38266;SDS011;24063;51.794;19.578;2022-11-03T00:00:48;10.31;;;10.26;;
38266;SDS011;24063;51.794;19.578;2022-11-03T00:01:50;9.68;;;9.64;;
38266;SDS011;24063;51.794;19.578;2022-11-03T00:02:52;10.32;;;10.32;;
38266;SDS011;24063;51.794;19.578;2022-11-03T00:03:54;9.53;;;9.53;;
38266;SDS011;24063;51.794;19.578;2022-11-03T00:04:56;9.74;;;9.73;;
38266;SDS011;24063;51.794;19.578;2022-11-03T00:05:57;10.13;;;10.08;;
38266;SDS011;24063;51.794;19.578;2022-11-03T00:07:05;11.48;;;11.42;;
38266;SDS011;24063;51.794;19.578;2022-11-03T00:08:07;10.75;;;10.69;;
38266;SDS011;24063;51.794;19.578;2022-11-03T00:09:10;10.19;;;10.10;;
38266;SDS011;24063;51.794;19.578;2022-11-03T00:10:13;10.06;;;9.90;;
38266;SDS011;24063;51.794;19.578;2022-11-03T00:11:15;10.64;;;10.56;;
38266;SDS011;24063;51.794;19.578;2022-11-03T00:12:17;10.54;;;10.51;;
38266;SDS011;24063;51.794;19.578;2022-11-03T00:13:18;10.73;;;10.58;;
38266;SDS011;24063;51.794;19.578;2022-11-03T00:14:20;10.84;;;10.61;;
38266;SDS011;24063;51.794;19.578;2022-11-03T00:15:22;11.16;;;11.06;;
38266;SDS011;24063;51.794;19.578;2022-11-03T00:16:24;10.80;;;10.80;;
38266;SDS011;24063;51.794;19.578;2022-11-03T00:17:25;11.19;;;11.16;;
38266;SDS011;24063;51.794;19.578;2022-11-03T00:18:27;10.79;;;10.70;;
38266;SDS011;24063;51.794;19.578;2022-11-03T00:19:29;10.90;;;10.83;;
38266;SDS011;24063;51.794;19.578;2022-11-03T00:20:31;10.84;;;10.81;;
38266;SDS011;24063;51.794;19.578;2022-11-03T00:21:33;11.06;;;11.02;;
38266;SDS011;24063;51.794;19.578;2022-11-03T00:22:35;10.72;;;10.66;;
38266;SDS011;24063;51.794;19.578;2022-11-03T00:23:38;10.55;;;10.51;;
38266;SDS011;24063;51.794;19.578;2022-11-03T00:24:42;10.41;;;10.36;;
38266;SDS011;24063;51.794;19.578;2022-11-03T00:25:43;10.95;;;10.93;;
38266;SDS011;24063;51.794;19.578;2022-11-03T00:26:45;10.49;;;10.40;;
38266;SDS011;24063;51.794;19.578;2022-11-03T00:27:52;9.72;;;9.69;;
38266;SDS011;24063;51.794;19.578;2022-11-03T00:28:56;9.84;;;9.82;;
38266;SDS011;24063;51.794;19.578;2022-11-03T00:30:03;9.57;;;9.54;;
38266;SDS011;24063;51.794;19.578;2022-11-03T00:31:09;10.14;;;10.13;;
38266;SDS011;24063;51.794;19.578;2022-11-03T00:32:13;10.36;;;10.36;;
38266;SDS011;24063;51.794;19.578;2022-11-03T00:33:15;10.47;;;10.47;;
38266;SDS011;24063;51.794;19.578;2022-11-03T00:34:16;10.43;;;10.43;;
38266;SDS011;24063;51.794;19.578;2022-11-03T00:35:18;13.58;;;13.58;;
38266;SDS011;24063;51.794;19.578;2022-11-03T00:36:39;12.90;;;12.90;;
38266;SDS011;24063;51.794;19.578;2022-11-03T00:37:43;12.52;;;12.50;;
38266;SDS011;24063;51.794;19.578;2022-11-03T00:38:45;13.15;;;13.00;;
38266;SDS011;24063;51.794;19.578;2022-11-03T00:39:47;13.23;;;13.06;;
38266;SDS011;24063;51.794;19.578;2022-11-03T00:40:52;11.99;;;11.87;;
38266;SDS011;24063;51.794;19.578;2022-11-03T00:41:55;11.31;;;11.21;;
38266;SDS011;24063;51.794;19.578;2022-11-03T00:42:57;12.62;;;12.60;;
38266;SDS011;24063;51.794;19.578;2022-11-03T00:43:59;11.57;;;11.52;;
38266;SDS011;24063;51.794;19.578;2022-11-03T00:45:00;11.91;;;11.83;;
38266;SDS011;24063;51.794;19.578;2022-11-03T00:46:03;11.54;;;11.49;;
38266;SDS011;24063;51.794;19.578;2022-11-03T00:47:07;11.33;;;11.33;;
38266;SDS011;24063;51.794;19.578;2022-11-03T00:48:09;10.79;;;10.77;;
38266;SDS011;24063;51.794;19.578;2022-11-03T00:49:29;10.78;;;10.74;;
38266;SDS011;24063;51.794;19.578;2022-11-03T00:50:32;10.83;;;10.75;;
38266;SDS011;24063;51.794;19.578;2022-11-03T00:51:34;9.81;;;9.73;;
38266;SDS011;24063;51.794;19.578;2022-11-03T00:52:36;9.98;;;9.92;;
38266;SDS011;24063;51.794;19.578;2022-11-03T00:55:09;9.96;;;9.96;;
38266;SDS011;24063;51.794;19.578;2022-11-03T00:56:13;9.59;;;9.58;;
38266;SDS011;24063;51.794;19.578;2022-11-03T00:57:18;9.69;;;9.65;;
38266;SDS011;24063;51.794;19.578;2022-11-03T00:58:20;9.75;;;9.73;;
38266;SDS011;24063;51.794;19.578;2022-11-03T00:59:22;9.50;;;9.40;;
38266;SDS011;24063;51.794;19.578;2022-11-03T01:00:23;9.82;;;9.82;;
38266;SDS011;24063;51.794;19.578;2022-11-03T01:01:26;9.39;;;9.39;;
38266;SDS011;24063;51.794;19.578;2022-11-03T01:02:33;9.36;;;9.35;;
38266;SDS011;24063;51.794;19.578;2022-11-03T01:03:36;9.45;;;9.43;;
38266;SDS011;24063;51.794;19.578;2022-11-03T01:04:39;9.95;;;9.93;;
38266;SDS011;24063;51.794;19.578;2022-11-03T01:05:59;10.27;;;10.26;;
38266;SDS011;24063;51.794;19.578;2022-11-03T01:07:21;10.65;;;10.65;;
38266;SDS011;24063;51.794;19.578;2022-11-03T01:08:23;10.25;;;10.25;;
38266;SDS011;24063;51.794;19.578;2022-11-03T01:09:29;9.57;;;9.56;;
38266;SDS011;24063;51.794;19.578;2022-11-03T01:10:36;10.17;;;10.17;;
38266;SDS011;24063;51.794;19.578;2022-11-03T01:11:38;10.00;;;10.00;;
38266;SDS011;24063;51.794;19.578;2022-11-03T01:12:46;9.98;;;9.98;;
38266;SDS011;24063;51.794;19.578;2022-11-03T01:13:47;9.62;;;9.59;;
38266;SDS011;24063;51.794;19.578;2022-11-03T01:14:50;10.48;;;10.45;;
38266;SDS011;24063;51.794;19.578;2022-11-03T01:15:56;9.82;;;9.79;;
38266;SDS011;24063;51.794;19.578;2022-11-03T01:17:01;10.70;;;10.67;;
38266;SDS011;24063;51.794;19.578;2022-11-03T01:18:06;10.71;;;10.67;;
38266;SDS011;24063;51.794;19.578;2022-11-03T01:19:08;10.53;;;10.51;;
38266;SDS011;24063;51.794;19.578;2022-11-03T01:20:10;10.17;;;10.17;;
38266;SDS011;24063;51.794;19.578;2022-11-03T01:21:12;10.36;;;10.36;;
38266;SDS011;24063;51.794;19.578;2022-11-03T01:22:14;10.28;;;10.28;;
38266;SDS011;24063;51.794;19.578;2022-11-03T01:23:17;10.22;;;10.22;;
38266;SDS011;24063;51.794;19.578;2022-11-03T01:24:19;10.73;;;10.72;;
38266;SDS011;24063;51.794;19.578;2022-11-03T01:25:21;10.96;;;10.96;;
38266;SDS011;24063;51.794;19.578;2022-11-03T01:26:24;11.50;;;11.49;;
38266;SDS011;24063;51.794;19.578;2022-11-03T01:27:29;11.04;;;11.01;;
38266;SDS011;24063;51.794;19.578;2022-11-03T01:28:34;10.76;;;10.70;;
38266;SDS011;24063;51.794;19.578;2022-11-03T01:29:40;10.55;;;10.54;;
38266;SDS011;24063;51.794;19.578;2022-11-03T01:30:42;11.90;;;11.89;;
38266;SDS011;24063;51.794;19.578;2022-11-03T01:31:44;12.11;;;12.11;;
38266;SDS011;24063;51.794;19.578;2022-11-03T01:32:46;12.34;;;12.34;;
38266;SDS011;24063;51.794;19.578;2022-11-03T01:59:01;11.39;;;11.38;;
38266;SDS011;24063;51.794;19.578;2022-11-03T02:00:04;11.58;;;11.58;;
38266;SDS011;24063;51.794;19.578;2022-11-03T02:01:15;11.98;;;11.97;;
38266;SDS011;24063;51.794;19.578;2022-11-03T02:02:18;11.49;;;11.49;;
38266;SDS011;24063;51.794;19.578;2022-11-03T02:03:20;11.83;;;11.83;;
38266;SDS011;24063;51.794;19.578;2022-11-03T02:04:26;11.56;;;11.55;;
38266;SDS011;24063;51.794;19.578;2022-11-03T02:05:32;11.98;;;11.94;;
38266;SDS011;24063;51.794;19.578;2022-11-03T02:06:34;11.78;;;11.75;;
38266;SDS011;24063;51.794;19.578;2022-11-03T02:07:48;12.06;;;12.05;;
38266;SDS011;24063;51.794;19.578;2022-11-03T02:08:53;12.12;;;12.12;;
38266;SDS011;24063;51.794;19.578;2022-11-03T02:10:02;12.25;;;12.22;;
38266;SDS011;24063;51.794;19.578;2022-11-03T02:11:04;12.64;;;12.53;;
38266;SDS011;24063;51.794;19.578;2022-11-03T02:12:26;12.11;;;12.05;;
38266;SDS011;24063;51.794;19.578;2022-11-03T02:13:29;12.94;;;12.84;;
38266;SDS011;24063;51.794;19.578;2022-11-03T02:14:31;12.79;;;12.75;;
38266;SDS011;24063;51.794;19.578;2022-11-03T02:15:33;12.17;;;12.10;;
38266;SDS011;24063;51.794;19.578;2022-11-03T02:16:38;12.35;;;12.27;;
38266;SDS011;24063;51.794;19.578;2022-11-03T02:17:49;12.43;;;12.34;;
38266;SDS011;24063;51.794;19.578;2022-11-03T02:18:54;12.07;;;12.02;;
38266;SDS011;24063;51.794;19.578;2022-11-03T02:20:07;12.43;;;12.43;;
38266;SDS011;24063;51.794;19.578;2022-11-03T02:22:35;11.73;;;11.72;;
38266;SDS011;24063;51.794;19.578;2022-11-03T02:26:40;12.77;;;12.76;;
38266;SDS011;24063;51.794;19.578;2022-11-03T02:27:48;12.81;;;12.80;;
38266;SDS011;24063;51.794;19.578;2022-11-03T02:28:50;12.65;;;12.63;;
38266;SDS011;24063;51.794;19.578;2022-11-03T02:29:56;11.94;;;11.94;;
38266;SDS011;24063;51.794;19.578;2022-11-03T02:32:47;11.78;;;11.76;;
38266;SDS011;24063;51.794;19.578;2022-11-03T02:34:05;12.03;;;12.00;;
38266;SDS011;24063;51.794;19.578;2022-11-03T02:35:28;12.58;;;12.50;;
38266;SDS011;24063;51.794;19.578;2022-11-03T02:36:43;12.61;;;12.54;;
38266;SDS011;24063;51.794;19.578;2022-11-03T02:37:53;11.62;;;11.50;;
38266;SDS011;24063;51.794;19.578;2022-11-03T02:39:05;12.13;;;12.06;;
38266;SDS011;24063;51.794;19.578;2022-11-03T02:40:16;12.64;;;12.63;;
38266;SDS011;24063;51.794;19.578;2022-11-03T02:41:26;12.36;;;12.33;;
38266;SDS011;24063;51.794;19.578;2022-11-03T02:42:34;12.72;;;12.67;;
38266;SDS011;24063;51.794;19.578;2022-11-03T02:43:40;13.39;;;13.32;;
38266;SDS011;24063;51.794;19.578;2022-11-03T02:44:46;12.64;;;12.63;;
38266;SDS011;24063;51.794;19.578;2022-11-03T02:45:49;12.83;;;12.83;;
38266;SDS011;24063;51.794;19.578;2022-11-03T02:46:54;13.43;;;13.40;;
38266;SDS011;24063;51.794;19.578;2022-11-03T02:48:01;13.04;;;13.03;;
38266;SDS011;24063;51.794;19.578;2022-11-03T02:49:06;12.24;;;12.24;;
38266;SDS011;24063;51.794;19.578;2022-11-03T02:50:08;12.28;;;12.28;;
38266;SDS011;24063;51.794;19.578;2022-11-03T02:51:10;12.04;;;12.04;;
38266;SDS011;24063;51.794;19.578;2022-11-03T02:53:36;12.67;;;12.65;;
38266;SDS011;24063;51.794;19.578;2022-11-03T02:54:45;12.58;;;12.58;;
38266;SDS011;24063;51.794;19.578;2022-11-03T02:55:55;11.97;;;11.97;;
38266;SDS011;24063;51.794;19.578;2022-11-03T02:57:11;13.32;;;13.29;;
38266;SDS011;24063;51.794;19.578;2022-11-03T02:59:45;16.62;;;16.54;;
38266;SDS011;24063;51.794;19.578;2022-11-03T03:01:11;18.50;;;18.43;;
38266;SDS011;24063;51.794;19.578;2022-11-03T03:02:17;16.47;;;16.44;;
38266;SDS011;24063;51.794;19.578;2022-11-03T03:03:31;16.45;;;16.45;;
38266;SDS011;24063;51.794;19.578;2022-11-03T03:04:47;16.58;;;16.58;;
38266;SDS011;24063;51.794;19.578;2022-11-03T03:05:56;17.52;;;17.46;;
38266;SDS011;24063;51.794;19.578;2022-11-03T03:07:06;16.85;;;16.82;;
38266;SDS011;24063;51.794;19.578;2022-11-03T03:08:22;18.87;;;18.84;;
38266;SDS011;24063;51.794;19.578;2022-11-03T03:09:28;15.43;;;15.41;;
38266;SDS011;24063;51.794;19.578;2022-11-03T03:10:41;14.06;;;14.01;;
38266;SDS011;24063;51.794;19.578;2022-11-03T03:11:46;15.54;;;15.52;;
38266;SDS011;24063;51.794;19.578;2022-11-03T03:12:55;14.64;;;14.64;;
38266;SDS011;24063;51.794;19.578;2022-11-03T03:13:59;15.31;;;15.30;;
38266;SDS011;24063;51.794;19.578;2022-11-03T03:15:01;14.74;;;14.72;;
38266;SDS011;24063;51.794;19.578;2022-11-03T03:16:11;15.16;;;15.05;;
38266;SDS011;24063;51.794;19.578;2022-11-03T03:18:55;14.54;;;14.45;;
38266;SDS011;24063;51.794;19.578;2022-11-03T03:20:07;14.72;;;14.68;;
38266;SDS011;24063;51.794;19.578;2022-11-03T03:21:20;16.49;;;16.36;;
38266;SDS011;24063;51.794;19.578;2022-11-03T03:23:41;14.26;;;14.18;;
38266;SDS011;24063;51.794;19.578;2022-11-03T03:25:35;14.44;;;14.44;;
38266;SDS011;24063;51.794;19.578;2022-11-03T03:26:40;13.49;;;13.49;;
38266;SDS011;24063;51.794;19.578;2022-11-03T03:27:52;14.96;;;14.96;;
38266;SDS011;24063;51.794;19.578;2022-11-03T03:29:25;14.60;;;14.60;;
38266;SDS011;24063;51.794;19.578;2022-11-03T03:30:32;14.91;;;14.91;;
38266;SDS011;24063;51.794;19.578;2022-11-03T03:31:37;16.05;;;16.05;;
38266;SDS011;24063;51.794;19.578;2022-11-03T03:32:46;18.08;;;17.98;;
38266;SDS011;24063;51.794;19.578;2022-11-03T03:33:50;18.41;;;18.13;;
38266;SDS011;24063;51.794;19.578;2022-11-03T03:35:05;19.28;;;18.78;;
38266;SDS011;24063;51.794;19.578;2022-11-03T03:36:12;21.33;;;20.88;;
38266;SDS011;24063;51.794;19.578;2022-11-03T03:37:18;22.81;;;21.54;;
38266;SDS011;24063;51.794;19.578;2022-11-03T03:38:24;26.83;;;24.67;;
38266;SDS011;24063;51.794;19.578;2022-11-03T03:39:40;29.83;;;26.60;;
38266;SDS011;24063;51.794;19.578;2022-11-03T03:40:49;33.31;;;28.77;;
38266;SDS011;24063;51.794;19.578;2022-11-03T03:41:56;32.37;;;28.12;;
38266;SDS011;24063;51.794;19.578;2022-11-03T03:43:02;43.61;;;35.62;;
38266;SDS011;24063;51.794;19.578;2022-11-03T03:44:08;43.04;;;34.55;;
38266;SDS011;24063;51.794;19.578;2022-11-03T03:45:12;34.30;;;29.23;;
38266;SDS011;24063;51.794;19.578;2022-11-03T03:46:15;28.87;;;25.59;;
38266;SDS011;24063;51.794;19.578;2022-11-03T03:47:28;32.28;;;28.43;;
38266;SDS011;24063;51.794;19.578;2022-11-03T03:48:33;36.77;;;31.28;;
38266;SDS011;24063;51.794;19.578;2022-11-03T03:49:35;40.42;;;33.38;;
38266;SDS011;24063;51.794;19.578;2022-11-03T03:50:37;33.76;;;28.40;;
38266;SDS011;24063;51.794;19.578;2022-11-03T03:51:43;24.94;;;22.26;;
38266;SDS011;24063;51.794;19.578;2022-11-03T03:52:47;20.58;;;19.32;;
38266;SDS011;24063;51.794;19.578;2022-11-03T03:53:50;21.11;;;20.01;;
38266;SDS011;24063;51.794;19.578;2022-11-03T03:54:53;18.05;;;17.48;;
38266;SDS011;24063;51.794;19.578;2022-11-03T03:56:04;15.95;;;15.68;;
38266;SDS011;24063;51.794;19.578;2022-11-03T03:57:06;16.22;;;15.90;;
38266;SDS011;24063;51.794;19.578;2022-11-03T03:58:17;15.99;;;15.73;;
38266;SDS011;24063;51.794;19.578;2022-11-03T03:59:19;16.05;;;15.87;;
38266;SDS011;24063;51.794;19.578;2022-11-03T04:00:20;16.45;;;16.27;;
38266;SDS011;24063;51.794;19.578;2022-11-03T04:01:25;15.40;;;15.28;;
38266;SDS011;24063;51.794;19.578;2022-11-03T04:02:28;15.08;;;15.01;;
38266;SDS011;24063;51.794;19.578;2022-11-03T04:03:32;15.74;;;15.71;;
38266;SDS011;24063;51.794;19.578;2022-11-03T04:04:34;17.91;;;17.86;;
38266;SDS011;24063;51.794;19.578;2022-11-03T04:05:36;21.01;;;20.89;;
38266;SDS011;24063;51.794;19.578;2022-11-03T04:06:38;18.88;;;18.67;;
38266;SDS011;24063;51.794;19.578;2022-11-03T04:07:39;17.39;;;17.26;;
38266;SDS011;24063;51.794;19.578;2022-11-03T04:08:47;16.49;;;16.40;;
38266;SDS011;24063;51.794;19.578;2022-11-03T04:09:49;15.85;;;15.75;;
38266;SDS011;24063;51.794;19.578;2022-11-03T04:10:51;15.41;;;15.40;;
38266;SDS011;24063;51.794;19.578;2022-11-03T04:12:12;15.03;;;14.91;;
38266;SDS011;24063;51.794;19.578;2022-11-03T04:13:35;17.52;;;17.38;;
38266;SDS011;24063;51.794;19.578;2022-11-03T04:15:01;16.82;;;16.72;;
38266;SDS011;24063;51.794;19.578;2022-11-03T04:16:22;18.31;;;18.29;;
38266;SDS011;24063;51.794;19.578;2022-11-03T04:17:49;17.44;;;17.43;;
38266;SDS011;24063;51.794;19.578;2022-11-03T04:19:10;18.94;;;18.88;;
38266;SDS011;24063;51.794;19.578;2022-11-03T04:20:31;18.82;;;18.80;;
38266;SDS011;24063;51.794;19.578;2022-11-03T04:21:52;18.19;;;18.19;;
38266;SDS011;24063;51.794;19.578;2022-11-03T04:23:13;17.63;;;17.62;;
38266;SDS011;24063;51.794;19.578;2022-11-03T04:24:15;19.51;;;19.51;;
38266;SDS011;24063;51.794;19.578;2022-11-03T04:25:17;18.15;;;18.14;;
38266;SDS011;24063;51.794;19.578;2022-11-03T04:26:19;17.45;;;17.42;;
38266;SDS011;24063;51.794;19.578;2022-11-03T04:27:28;17.81;;;17.70;;
38266;SDS011;24063;51.794;19.578;2022-11-03T04:28:31;16.69;;;16.60;;
38266;SDS011;24063;51.794;19.578;2022-11-03T04:29:35;16.83;;;16.82;;
38266;SDS011;24063;51.794;19.578;2022-11-03T04:30:37;15.97;;;15.94;;
38266;SDS011;24063;51.794;19.578;2022-11-03T04:31:39;17.36;;;17.35;;
38266;SDS011;24063;51.794;19.578;2022-11-03T04:32:42;17.30;;;17.25;;
38266;SDS011;24063;51.794;19.578;2022-11-03T04:33:45;20.99;;;20.81;;
38266;SDS011;24063;51.794;19.578;2022-11-03T04:34:48;19.74;;;19.62;;
38266;SDS011;24063;51.794;19.578;2022-11-03T04:35:50;18.35;;;18.25;;
38266;SDS011;24063;51.794;19.578;2022-11-03T04:36:55;19.18;;;19.16;;
38266;SDS011;24063;51.794;19.578;2022-11-03T04:38:01;17.62;;;17.53;;
38266;SDS011;24063;51.794;19.578;2022-11-03T04:39:18;17.55;;;17.47;;
38266;SDS011;24063;51.794;19.578;2022-11-03T04:40:21;17.17;;;17.16;;
38266;SDS011;24063;51.794;19.578;2022-11-03T04:41:24;15.98;;;15.93;;
38266;SDS011;24063;51.794;19.578;2022-11-03T04:42:32;24.33;;;24.20;;
38266;SDS011;24063;51.794;19.578;2022-11-03T04:43:35;18.76;;;18.66;;
38266;SDS011;24063;51.794;19.578;2022-11-03T04:44:39;18.61;;;18.53;;
38266;SDS011;24063;51.794;19.578;2022-11-03T04:45:44;16.62;;;16.58;;
38266;SDS011;24063;51.794;19.578;2022-11-03T04:46:47;16.48;;;16.44;;
38266;SDS011;24063;51.794;19.578;2022-11-03T04:47:49;17.47;;;17.39;;
38266;SDS011;24063;51.794;19.578;2022-11-03T04:48:53;18.84;;;18.80;;
38266;SDS011;24063;51.794;19.578;2022-11-03T04:50:00;21.29;;;21.23;;
38266;SDS011;24063;51.794;19.578;2022-11-03T04:51:12;24.85;;;24.65;;
38266;SDS011;24063;51.794;19.578;2022-11-03T04:52:20;20.82;;;20.68;;
38266;SDS011;24063;51.794;19.578;2022-11-03T04:53:29;18.66;;;18.57;;
38266;SDS011;24063;51.794;19.578;2022-11-03T04:54:33;16.39;;;16.26;;
38266;SDS011;24063;51.794;19.578;2022-11-03T04:55:35;20.40;;;20.32;;
38266;SDS011;24063;51.794;19.578;2022-11-03T04:56:38;19.71;;;19.71;;
38266;SDS011;24063;51.794;19.578;2022-11-03T04:57:41;17.88;;;17.86;;
38266;SDS011;24063;51.794;19.578;2022-11-03T04:58:44;16.50;;;16.38;;
38266;SDS011;24063;51.794;19.578;2022-11-03T04:59:48;17.04;;;17.01;;
38266;SDS011;24063;51.794;19.578;2022-11-03T05:00:52;17.68;;;17.66;;
38266;SDS011;24063;51.794;19.578;2022-11-03T05:01:58;18.84;;;18.74;;
38266;SDS011;24063;51.794;19.578;2022-11-03T05:03:00;17.29;;;17.26;;
38266;SDS011;24063;51.794;19.578;2022-11-03T05:04:04;16.64;;;16.55;;
38266;SDS011;24063;51.794;19.578;2022-11-03T05:05:16;17.79;;;17.66;;
38266;SDS011;24063;51.794;19.578;2022-11-03T05:06:23;21.15;;;21.11;;
38266;SDS011;24063;51.794;19.578;2022-11-03T05:07:30;24.37;;;24.37;;
38266;SDS011;24063;51.794;19.578;2022-11-03T05:08:35;19.75;;;19.75;;
38266;SDS011;24063;51.794;19.578;2022-11-03T05:09:37;19.90;;;19.90;;
38266;SDS011;24063;51.794;19.578;2022-11-03T05:10:43;21.66;;;21.66;;
38266;SDS011;24063;51.794;19.578;2022-11-03T05:11:46;21.67;;;21.67;;
38266;SDS011;24063;51.794;19.578;2022-11-03T05:12:48;18.88;;;18.88;;
38266;SDS011;24063;51.794;19.578;2022-11-03T05:13:52;16.81;;;16.79;;
38266;SDS011;24063;51.794;19.578;2022-11-03T05:14:54;18.63;;;18.63;;
38266;SDS011;24063;51.794;19.578;2022-11-03T05:16:02;17.84;;;17.82;;
38266;SDS011;24063;51.794;19.578;2022-11-03T05:17:10;14.05;;;14.01;;
38266;SDS011;24063;51.794;19.578;2022-11-03T05:18:32;13.41;;;13.34;;
38266;SDS011;24063;51.794;19.578;2022-11-03T05:19:39;13.68;;;13.68;;
38266;SDS011;24063;51.794;19.578;2022-11-03T05:20:45;13.28;;;13.25;;
38266;SDS011;24063;51.794;19.578;2022-11-03T05:21:52;14.37;;;14.34;;
38266;SDS011;24063;51.794;19.578;2022-11-03T05:22:58;15.91;;;15.90;;
38266;SDS011;24063;51.794;19.578;2022-11-03T05:24:02;17.83;;;17.83;;
38266;SDS011;24063;51.794;19.578;2022-11-03T05:25:24;17.90;;;17.88;;
38266;SDS011;24063;51.794;19.578;2022-11-03T05:26:41;19.12;;;18.86;;
38266;SDS011;24063;51.794;19.578;2022-11-03T05:27:44;18.99;;;18.49;;
38266;SDS011;24063;51.794;19.578;2022-11-03T05:28:53;19.87;;;19.40;;
38266;SDS011;24063;51.794;19.578;2022-11-03T05:30:00;16.80;;;16.61;;
38266;SDS011;24063;51.794;19.578;2022-11-03T05:31:13;18.30;;;18.14;;
38266;SDS011;24063;51.794;19.578;2022-11-03T05:32:29;18.45;;;18.34;;
38266;SDS011;24063;51.794;19.578;2022-11-03T05:33:34;18.81;;;18.66;;
38266;SDS011;24063;51.794;19.578;2022-11-03T05:34:37;17.29;;;17.06;;
38266;SDS011;24063;51.794;19.578;2022-11-03T05:35:42;17.30;;;17.19;;
38266;SDS011;24063;51.794;19.578;2022-11-03T05:36:44;16.66;;;16.58;;
38266;SDS011;24063;51.794;19.578;2022-11-03T05:37:46;17.10;;;16.98;;
38266;SDS011;24063;51.794;19.578;2022-11-03T05:38:50;17.59;;;17.46;;
38266;SDS011;24063;51.794;19.578;2022-11-03T05:43:38;25.52;;;25.49;;
38266;SDS011;24063;51.794;19.578;2022-11-03T05:44:40;23.01;;;23.01;;
38266;SDS011;24063;51.794;19.578;2022-11-03T05:45:42;21.99;;;21.98;;
38266;SDS011;24063;51.794;19.578;2022-11-03T05:46:44;19.56;;;19.55;;
38266;SDS011;24063;51.794;19.578;2022-11-03T05:47:46;15.38;;;15.38;;
38266;SDS011;24063;51.794;19.578;2022-11-03T05:48:49;16.70;;;16.70;;
38266;SDS011;24063;51.794;19.578;2022-11-03T05:49:53;18.98;;;18.96;;
38266;SDS011;24063;51.794;19.578;2022-11-03T05:51:17;31.25;;;31.12;;
38266;SDS011;24063;51.794;19.578;2022-11-03T05:52:24;42.43;;;42.22;;
38266;SDS011;24063;51.794;19.578;2022-11-03T05:53:29;36.66;;;36.46;;
38266;SDS011;24063;51.794;19.578;2022-11-03T05:54:38;29.17;;;29.00;;
38266;SDS011;24063;51.794;19.578;2022-11-03T05:55:40;24.24;;;24.05;;
38266;SDS011;24063;51.794;19.578;2022-11-03T05:56:44;20.00;;;19.95;;
38266;SDS011;24063;51.794;19.578;2022-11-03T05:57:45;19.22;;;19.21;;
38266;SDS011;24063;51.794;19.578;2022-11-03T05:58:48;15.80;;;15.80;;
38266;SDS011;24063;51.794;19.578;2022-11-03T05:59:52;14.62;;;14.62;;
38266;SDS011;24063;51.794;19.578;2022-11-03T06:00:55;15.42;;;15.42;;
38266;SDS011;24063;51.794;19.578;2022-11-03T06:01:58;16.63;;;16.63;;
38266;SDS011;24063;51.794;19.578;2022-11-03T06:03:01;15.28;;;15.28;;
38266;SDS011;24063;51.794;19.578;2022-11-03T06:04:17;14.28;;;14.27;;
38266;SDS011;24063;51.794;19.578;2022-11-03T06:05:21;13.94;;;13.93;;
38266;SDS011;24063;51.794;19.578;2022-11-03T06:06:31;13.36;;;13.36;;
38266;SDS011;24063;51.794;19.578;2022-11-03T06:07:37;14.23;;;14.19;;
38266;SDS011;24063;51.794;19.578;2022-11-03T06:08:38;14.87;;;14.85;;
38266;SDS011;24063;51.794;19.578;2022-11-03T06:09:46;14.61;;;14.60;;
38266;SDS011;24063;51.794;19.578;2022-11-03T06:10:49;14.83;;;14.83;;
38266;SDS011;24063;51.794;19.578;2022-11-03T06:11:54;14.73;;;14.73;;
38266;SDS011;24063;51.794;19.578;2022-11-03T06:13:00;14.49;;;14.49;;
38266;SDS011;24063;51.794;19.578;2022-11-03T06:14:19;17.52;;;17.41;;
38266;SDS011;24063;51.794;19.578;2022-11-03T06:15:29;16.94;;;16.88;;
38266;SDS011;24063;51.794;19.578;2022-11-03T06:16:35;19.22;;;19.18;;
38266;SDS011;24063;51.794;19.578;2022-11-03T06:17:40;28.23;;;28.11;;
38266;SDS011;24063;51.794;19.578;2022-11-03T06:18:42;27.66;;;27.58;;
38266;SDS011;24063;51.794;19.578;2022-11-03T06:19:45;26.60;;;26.43;;
38266;SDS011;24063;51.794;19.578;2022-11-03T06:21:00;26.39;;;26.32;;
38266;SDS011;24063;51.794;19.578;2022-11-03T06:23:26;25.41;;;25.25;;
38266;SDS011;24063;51.794;19.578;2022-11-03T06:24:29;22.94;;;22.90;;
38266;SDS011;24063;51.794;19.578;2022-11-03T06:25:35;20.50;;;20.49;;
38266;SDS011;24063;51.794;19.578;2022-11-03T06:26:38;17.76;;;17.76;;
38266;SDS011;24063;51.794;19.578;2022-11-03T06:27:42;17.29;;;17.28;;
38266;SDS011;24063;51.794;19.578;2022-11-03T06:28:44;17.72;;;17.71;;
38266;SDS011;24063;51.794;19.578;2022-11-03T06:29:52;19.00;;;18.96;;
38266;SDS011;24063;51.794;19.578;2022-11-03T06:30:59;17.02;;;16.98;;
38266;SDS011;24063;51.794;19.578;2022-11-03T06:32:01;15.64;;;15.61;;
38266;SDS011;24063;51.794;19.578;2022-11-03T06:33:08;14.32;;;14.32;;
38266;SDS011;24063;51.794;19.578;2022-11-03T06:35:33;12.55;;;12.55;;
38266;SDS011;24063;51.794;19.578;2022-11-03T06:36:36;12.95;;;12.95;;
38266;SDS011;24063;51.794;19.578;2022-11-03T06:37:37;12.68;;;12.68;;
38266;SDS011;24063;51.794;19.578;2022-11-03T06:38:39;13.07;;;13.07;;
38266;SDS011;24063;51.794;19.578;2022-11-03T06:39:41;12.93;;;12.93;;
38266;SDS011;24063;51.794;19.578;2022-11-03T06:40:43;13.69;;;13.66;;
38266;SDS011;24063;51.794;19.578;2022-11-03T06:41:46;13.41;;;13.41;;
38266;SDS011;24063;51.794;19.578;2022-11-03T06:42:48;12.87;;;12.87;;
38266;SDS011;24063;51.794;19.578;2022-11-03T06:43:49;12.50;;;12.50;;
38266;SDS011;24063;51.794;19.578;2022-11-03T06:44:52;12.22;;;12.22;;
38266;SDS011;24063;51.794;19.578;2022-11-03T06:45:57;11.49;;;11.49;;
38266;SDS011;24063;51.794;19.578;2022-11-03T06:47:04;12.41;;;12.41;;
38266;SDS011;24063;51.794;19.578;2022-11-03T06:48:22;12.22;;;12.20;;
38266;SDS011;24063;51.794;19.578;2022-11-03T06:49:27;12.40;;;12.40;;
38266;SDS011;24063;51.794;19.578;2022-11-03T06:50:33;11.65;;;11.65;;
38266;SDS011;24063;51.794;19.578;2022-11-03T06:51:35;11.32;;;11.28;;
38266;SDS011;24063;51.794;19.578;2022-11-03T06:52:38;11.76;;;11.71;;
38266;SDS011;24063;51.794;19.578;2022-11-03T06:53:43;10.90;;;10.89;;
38266;SDS011;24063;51.794;19.578;2022-11-03T06:54:47;11.29;;;11.28;;
38266;SDS011;24063;51.794;19.578;2022-11-03T06:55:50;11.42;;;11.37;;
38266;SDS011;24063;51.794;19.578;2022-11-03T06:56:52;12.30;;;12.30;;
38266;SDS011;24063;51.794;19.578;2022-11-03T06:57:56;12.63;;;12.63;;
38266;SDS011;24063;51.794;19.578;2022-11-03T06:59:06;12.65;;;12.65;;
38266;SDS011;24063;51.794;19.578;2022-11-03T07:01:34;13.51;;;13.43;;
38266;SDS011;24063;51.794;19.578;2022-11-03T07:03:50;15.72;;;15.54;;
38266;SDS011;24063;51.794;19.578;2022-11-03T07:04:58;15.30;;;15.16;;
38266;SDS011;24063;51.794;19.578;2022-11-03T07:07:11;13.74;;;13.71;;
38266;SDS011;24063;51.794;19.578;2022-11-03T07:08:20;13.36;;;13.32;;
38266;SDS011;24063;51.794;19.578;2022-11-03T07:09:23;13.17;;;13.15;;
38266;SDS011;24063;51.794;19.578;2022-11-03T07:10:30;12.58;;;12.58;;
38266;SDS011;24063;51.794;19.578;2022-11-03T07:11:34;13.58;;;13.57;;